Aviation Digital Data Service (ADDS)

Output produced by METARs form (0837 UTC 24 September 2017)
found at http://aviationweather.gov/adds/metars/
 
KACY 240528Z 2406/2506 VRB03KT P6SM SKC 
     FM241300 04007KT P6SM SKC 
     FM241800 09010KT P6SM SKC 
     FM242200 17005KT P6SM SKC